Observations for NEWCASTLE, United Kingdom (EGNT)

EGNT 180250Z 18001KT CAVOK M01/M01 Q1019
EGNT 180220Z VRB01KT CAVOK 00/00 Q1019  
EGNT 180150Z 22001KT CAVOK 00/00 Q1020  
EGNT 180120Z 15001KT CAVOK 01/01 Q1020  
EGNT 180050Z 10001KT CAVOK 01/00 Q1020  
EGNT 180020Z 21002KT CAVOK 01/00 Q1019  
EGNT 172350Z 23003KT CAVOK 01/01 Q1019  
EGNT 172320Z 20002KT CAVOK 02/01 Q1019  
EGNT 172250Z 25002KT 9999 FEW025 02/01 Q1019
EGNT 172220Z 25003KT 9999 FEW024 02/00 Q1019
EGNT 172150Z 26003KT 9999 FEW024 03/01 Q1019
EGNT 172120Z 22003KT 9999 FEW024 03/01 Q1019
EGNT 172050Z 21003KT 9999 FEW024 04/01 Q1019
EGNT 172020Z 24005KT 9999 FEW030 04/01 Q1019
EGNT 171950Z 25004KT 9999 FEW030 04/01 Q1019
EGNT 171920Z 22004KT 9999 FEW030 04/01 Q1019
EGNT 171850Z 21004KT 9999 FEW030 04/01 Q1018
EGNT 171820Z 22004KT 9999 FEW030 05/01 Q1018
EGNT 171750Z 00000KT 9999 FEW028 05/01 Q1018
EGNT 171720Z 26006KT 9999 FEW026 06/02 Q1017
EGNT 171650Z 26009KT 9999 FEW026 07/02 Q1017
EGNT 171620Z 28006KT 9999 FEW030 07/02 Q1017
EGNT 171550Z 27007KT 240V300 9999 SCT030 07/02 Q1017
EGNT 171520Z 25010KT 9999 SCT030 08/02 Q1016
EGNT 171450Z 24009KT 200V260 9999 SCT028 09/02 Q1016
EGNT 171420Z 24010KT 210V270 9999 SCT028 08/02 Q1016
EGNT 171350Z 25008KT 9999 SCT030 09/02 Q1017
EGNT 171320Z 22008KT 190V260 9999 SCT030 08/02 Q1017
EGNT 171250Z 22010KT 9999 SCT023 08/02 Q1017
EGNT 171220Z 23006KT 190V260 9999 SCT028 08/03 Q1017
EGNT 171150Z 21010KT 180V250 9999 FEW025 08/02 Q1017
EGNT 171120Z 23008KT 190V250 9999 FEW028 07/02 Q1017
EGNT 171050Z 20008KT 170V250 9999 FEW022 07/02 Q1016
EGNT 171020Z 20005KT 160V220 9999 FEW025 07/02 Q1016
EGNT 170950Z 22007KT 9999 SCT026 05/02 Q1016
EGNT 170920Z 22008KT 190V260 9999 FEW015 SCT030 05/02 Q1016 
EGNT 170850Z 20008KT 9999 FEW015 SCT030 05/01 Q1016 
EGNT 170820Z 21009KT 9999 FEW015 BKN031 04/01 Q1016 
EGNT 170750Z 22005KT 190V260 9999 -RA FEW020 BKN033 04/01 Q1016 
EGNT 170720Z 20006KT 9999 FEW024 BKN033 04/01 Q1016 
EGNT 170650Z 20006KT 160V230 9999 -RA FEW022 BKN032 04/01 Q1016 
EGNT 170620Z 20007KT 9999 -RA FEW022 BKN032 04/01 Q1015 
EGNT 170550Z 21009KT 170V250 9999 -RA FEW022 BKN034 04/01 Q1016 
EGNT 170450Z 20008KT 160V230 9999 FEW022 05/01 Q1016
EGNT 170350Z 20005KT 170V250 9999 SCT040 05/01 Q1016
EGNT 170250Z 14003KT 9999 SCT040 03/01 Q1017